Big Creek, Idaho
Current Conditions -  °F | °C
As of 5:51 PM on Friday 24 Oct 2014 (Local Time) from KMYL Reporting Station
Overcast Overcast  
Wind Chill: 50°   Ceiling: 10000
Heat Index: 50°   Visibility: 10mi
Dew Point: 45°   Wind: 0mph
Humidity: 83%   Direction: NA
Pressure: 30.04"   Gusts: NA
Location:  45.13°N, 115.32°W
Report Text: KMYL 242351Z AUTO 00000KT 10SM OVC100 10/07 A3004 RMK AO2 SLP166 60003 T01000072 10106 20056 56008
Loading
Personal Weather Stations






























Interactive Weather Map
Tropical Storm Tracking
New forecast layout! Learn more

10-Day Weather Forecast

Advertisements
Track Severe Weather on mobile